sensor_id;sensor_type;location;lat;lon;timestamp;P1;durP1;ratioP1;P2;durP2;ratioP2
77148;SDS011;66122;47.130;16.844;2023-08-20T00:10:07;36.10;;;34.40;;
77148;SDS011;66122;47.130;16.844;2023-08-20T00:20:14;31.93;;;30.43;;
77148;SDS011;66122;47.130;16.844;2023-08-20T00:30:23;32.33;;;30.83;;
77148;SDS011;66122;47.130;16.844;2023-08-20T00:40:28;34.97;;;33.27;;
77148;SDS011;66122;47.130;16.844;2023-08-20T00:50:32;35.65;;;33.95;;
77148;SDS011;66122;47.130;16.844;2023-08-20T01:00:43;40.23;;;38.10;;
77148;SDS011;66122;47.130;16.844;2023-08-20T01:11:03;32.73;;;31.23;;
77148;SDS011;66122;47.130;16.844;2023-08-20T01:21:44;30.00;;;28.60;;
77148;SDS011;66122;47.130;16.844;2023-08-20T01:31:58;31.90;;;30.30;;
77148;SDS011;66122;47.130;16.844;2023-08-20T01:42:04;31.00;;;29.50;;
77148;SDS011;66122;47.130;16.844;2023-08-20T01:52:08;39.55;;;37.67;;
77148;SDS011;66122;47.130;16.844;2023-08-20T02:02:12;32.17;;;30.67;;
77148;SDS011;66122;47.130;16.844;2023-08-20T02:12:14;35.13;;;32.93;;
77148;SDS011;66122;47.130;16.844;2023-08-20T02:22:17;35.03;;;33.23;;
77148;SDS011;66122;47.130;16.844;2023-08-20T02:32:25;33.72;;;32.13;;
77148;SDS011;66122;47.130;16.844;2023-08-20T02:42:34;33.23;;;31.63;;
77148;SDS011;66122;47.130;16.844;2023-08-20T02:52:38;34.50;;;32.90;;
77148;SDS011;66122;47.130;16.844;2023-08-20T03:02:49;32.92;;;31.33;;
77148;SDS011;66122;47.130;16.844;2023-08-20T03:13:03;33.73;;;32.13;;
77148;SDS011;66122;47.130;16.844;2023-08-20T03:23:07;35.57;;;33.87;;
77148;SDS011;66122;47.130;16.844;2023-08-20T03:33:17;39.67;;;37.67;;
77148;SDS011;66122;47.130;16.844;2023-08-20T03:43:29;35.53;;;33.83;;
77148;SDS011;66122;47.130;16.844;2023-08-20T03:53:33;37.43;;;35.70;;
77148;SDS011;66122;47.130;16.844;2023-08-20T04:03:39;43.17;;;41.17;;
77148;SDS011;66122;47.130;16.844;2023-08-20T04:13:42;36.88;;;35.08;;
77148;SDS011;66122;47.130;16.844;2023-08-20T04:23:46;42.83;;;40.83;;
77148;SDS011;66122;47.130;16.844;2023-08-20T04:33:55;39.10;;;37.30;;
77148;SDS011;66122;47.130;16.844;2023-08-20T04:44:15;36.22;;;34.53;;
77148;SDS011;66122;47.130;16.844;2023-08-20T04:54:20;40.93;;;38.93;;
77148;SDS011;66122;47.130;16.844;2023-08-20T05:04:23;35.87;;;34.17;;
77148;SDS011;66122;47.130;16.844;2023-08-20T05:14:33;38.17;;;36.35;;
77148;SDS011;66122;47.130;16.844;2023-08-20T05:24:43;38.17;;;36.37;;
77148;SDS011;66122;47.130;16.844;2023-08-20T05:34:54;36.07;;;34.37;;
77148;SDS011;66122;47.130;16.844;2023-08-20T05:45:05;38.60;;;36.80;;
77148;SDS011;66122;47.130;16.844;2023-08-20T05:55:24;35.42;;;33.72;;
77148;SDS011;66122;47.130;16.844;2023-08-20T06:05:30;37.40;;;35.60;;
77148;SDS011;66122;47.130;16.844;2023-08-20T06:15:36;33.50;;;31.90;;
77148;SDS011;66122;47.130;16.844;2023-08-20T06:25:46;34.75;;;33.15;;
77148;SDS011;66122;47.130;16.844;2023-08-20T06:36:17;36.00;;;34.20;;
77148;SDS011;66122;47.130;16.844;2023-08-20T06:46:25;36.00;;;34.10;;
77148;SDS011;66122;47.130;16.844;2023-08-20T06:56:28;43.53;;;41.17;;
77148;SDS011;66122;47.130;16.844;2023-08-20T07:06:34;37.93;;;36.13;;
77148;SDS011;66122;47.130;16.844;2023-08-20T07:16:44;40.87;;;38.87;;
77148;SDS011;66122;47.130;16.844;2023-08-20T07:26:50;40.50;;;38.60;;
77148;SDS011;66122;47.130;16.844;2023-08-20T07:37:04;40.22;;;38.22;;
77148;SDS011;66122;47.130;16.844;2023-08-20T07:47:08;44.10;;;42.00;;
77148;SDS011;66122;47.130;16.844;2023-08-20T07:57:13;48.47;;;46.17;;
77148;SDS011;66122;47.130;16.844;2023-08-20T08:07:17;1999.90;;;999.90;;
77148;SDS011;66122;47.130;16.844;2023-08-20T08:17:26;1999.90;;;999.90;;
77148;SDS011;66122;47.130;16.844;2023-08-20T08:27:28;1999.90;;;999.90;;
77148;SDS011;66122;47.130;16.844;2023-08-20T08:37:35;1999.90;;;999.90;;
77148;SDS011;66122;47.130;16.844;2023-08-20T08:47:46;1999.90;;;999.90;;
77148;SDS011;66122;47.130;16.844;2023-08-20T08:58:12;1999.90;;;999.90;;
77148;SDS011;66122;47.130;16.844;2023-08-20T09:08:21;1999.90;;;999.90;;
77148;SDS011;66122;47.130;16.844;2023-08-20T09:18:48;1999.90;;;999.90;;
77148;SDS011;66122;47.130;16.844;2023-08-20T09:28:56;1999.90;;;999.90;;
77148;SDS011;66122;47.130;16.844;2023-08-20T09:39:05;1999.90;;;999.90;;
77148;SDS011;66122;47.130;16.844;2023-08-20T09:49:17;1999.90;;;999.90;;
77148;SDS011;66122;47.130;16.844;2023-08-20T09:59:28;1999.90;;;999.90;;
77148;SDS011;66122;47.130;16.844;2023-08-20T10:09:35;1999.90;;;999.90;;
77148;SDS011;66122;47.130;16.844;2023-08-20T10:19:39;1999.90;;;999.90;;
77148;SDS011;66122;47.130;16.844;2023-08-20T10:29:49;1999.90;;;999.90;;
77148;SDS011;66122;47.130;16.844;2023-08-20T10:40:01;1999.90;;;999.90;;
77148;SDS011;66122;47.130;16.844;2023-08-20T10:50:04;1999.90;;;999.90;;
77148;SDS011;66122;47.130;16.844;2023-08-20T11:00:07;1999.90;;;999.90;;
77148;SDS011;66122;47.130;16.844;2023-08-20T11:10:20;1999.90;;;999.90;;
77148;SDS011;66122;47.130;16.844;2023-08-20T11:20:27;1.30;;;1.20;;
77148;SDS011;66122;47.130;16.844;2023-08-20T11:30:36;1.05;;;0.95;;
77148;SDS011;66122;47.130;16.844;2023-08-20T11:40:46;0.80;;;0.60;;
77148;SDS011;66122;47.130;16.844;2023-08-20T11:50:56;1.27;;;1.17;;
77148;SDS011;66122;47.130;16.844;2023-08-20T12:01:07;0.82;;;0.73;;
77148;SDS011;66122;47.130;16.844;2023-08-20T12:11:27;0.97;;;0.87;;
77148;SDS011;66122;47.130;16.844;2023-08-20T12:22:04;1.47;;;1.37;;
77148;SDS011;66122;47.130;16.844;2023-08-20T12:32:38;1.58;;;1.48;;
77148;SDS011;66122;47.130;16.844;2023-08-20T12:43:08;1.23;;;1.13;;
77148;SDS011;66122;47.130;16.844;2023-08-20T12:53:17;1.10;;;1.00;;
77148;SDS011;66122;47.130;16.844;2023-08-20T13:03:32;1.00;;;0.90;;
77148;SDS011;66122;47.130;16.844;2023-08-20T13:13:42;1.60;;;1.50;;
77148;SDS011;66122;47.130;16.844;2023-08-20T13:23:53;1.77;;;1.67;;
77148;SDS011;66122;47.130;16.844;2023-08-20T13:34:07;1.10;;;1.00;;
77148;SDS011;66122;47.130;16.844;2023-08-20T13:44:12;1.00;;;0.90;;
77148;SDS011;66122;47.130;16.844;2023-08-20T13:54:20;1.10;;;1.00;;
77148;SDS011;66122;47.130;16.844;2023-08-20T14:04:22;1.10;;;1.00;;
77148;SDS011;66122;47.130;16.844;2023-08-20T14:14:32;1.30;;;1.20;;
77148;SDS011;66122;47.130;16.844;2023-08-20T14:24:42;1.60;;;1.50;;
77148;SDS011;66122;47.130;16.844;2023-08-20T14:34:48;1.70;;;1.60;;
77148;SDS011;66122;47.130;16.844;2023-08-20T14:44:57;1.33;;;1.23;;
77148;SDS011;66122;47.130;16.844;2023-08-20T14:55:06;1.30;;;1.20;;
77148;SDS011;66122;47.130;16.844;2023-08-20T15:05:36;1.50;;;1.40;;
77148;SDS011;66122;47.130;16.844;2023-08-20T15:15:50;1.30;;;1.20;;
77148;SDS011;66122;47.130;16.844;2023-08-20T15:26:03;1.60;;;1.50;;
77148;SDS011;66122;47.130;16.844;2023-08-20T15:36:24;1.57;;;1.47;;
77148;SDS011;66122;47.130;16.844;2023-08-20T15:47:03;1.47;;;1.37;;
77148;SDS011;66122;47.130;16.844;2023-08-20T15:57:12;1.48;;;1.38;;
77148;SDS011;66122;47.130;16.844;2023-08-20T16:07:48;1.60;;;1.50;;
77148;SDS011;66122;47.130;16.844;2023-08-20T16:18:01;1.57;;;1.47;;
77148;SDS011;66122;47.130;16.844;2023-08-20T16:28:09;1.43;;;1.33;;
77148;SDS011;66122;47.130;16.844;2023-08-20T16:38:19;1.40;;;1.30;;
77148;SDS011;66122;47.130;16.844;2023-08-20T16:48:30;1.00;;;0.90;;
77148;SDS011;66122;47.130;16.844;2023-08-20T16:58:33;1.93;;;1.83;;
77148;SDS011;66122;47.130;16.844;2023-08-20T17:08:38;3.00;;;2.80;;
77148;SDS011;66122;47.130;16.844;2023-08-20T17:18:44;2.55;;;2.45;;
77148;SDS011;66122;47.130;16.844;2023-08-20T17:28:51;1.70;;;1.60;;
77148;SDS011;66122;47.130;16.844;2023-08-20T17:39:00;1.63;;;1.53;;
77148;SDS011;66122;47.130;16.844;2023-08-20T17:49:05;1.87;;;1.77;;
77148;SDS011;66122;47.130;16.844;2023-08-20T17:59:14;1.60;;;1.50;;
77148;SDS011;66122;47.130;16.844;2023-08-20T18:09:18;2.00;;;1.90;;
77148;SDS011;66122;47.130;16.844;2023-08-20T18:19:20;1.40;;;1.30;;
77148;SDS011;66122;47.130;16.844;2023-08-20T18:29:26;1.33;;;1.23;;
77148;SDS011;66122;47.130;16.844;2023-08-20T18:39:33;1.30;;;1.20;;
77148;SDS011;66122;47.130;16.844;2023-08-20T18:49:42;1.20;;;1.10;;
77148;SDS011;66122;47.130;16.844;2023-08-20T18:59:51;1.20;;;1.10;;
77148;SDS011;66122;47.130;16.844;2023-08-20T19:10:00;1.27;;;1.17;;
77148;SDS011;66122;47.130;16.844;2023-08-20T19:20:23;1.17;;;1.07;;
77148;SDS011;66122;47.130;16.844;2023-08-20T19:30:44;0.90;;;0.80;;
77148;SDS011;66122;47.130;16.844;2023-08-20T19:40:53;1.02;;;0.93;;
77148;SDS011;66122;47.130;16.844;2023-08-20T19:51:02;1.03;;;0.93;;
77148;SDS011;66122;47.130;16.844;2023-08-20T20:01:06;0.90;;;0.80;;
77148;SDS011;66122;47.130;16.844;2023-08-20T20:11:11;0.90;;;0.80;;
77148;SDS011;66122;47.130;16.844;2023-08-20T20:21:22;0.83;;;0.70;;
77148;SDS011;66122;47.130;16.844;2023-08-20T20:31:28;0.80;;;0.70;;
77148;SDS011;66122;47.130;16.844;2023-08-20T20:41:35;0.90;;;0.80;;
77148;SDS011;66122;47.130;16.844;2023-08-20T20:51:43;1.03;;;0.93;;
77148;SDS011;66122;47.130;16.844;2023-08-20T21:01:51;0.90;;;0.80;;
77148;SDS011;66122;47.130;16.844;2023-08-20T21:11:54;0.97;;;0.87;;
77148;SDS011;66122;47.130;16.844;2023-08-20T21:21:57;0.80;;;0.70;;
77148;SDS011;66122;47.130;16.844;2023-08-20T21:32:08;0.80;;;0.80;;
77148;SDS011;66122;47.130;16.844;2023-08-20T21:42:11;0.80;;;0.73;;
77148;SDS011;66122;47.130;16.844;2023-08-20T21:52:21;1.13;;;1.02;;
77148;SDS011;66122;47.130;16.844;2023-08-20T22:02:36;1.03;;;0.93;;
77148;SDS011;66122;47.130;16.844;2023-08-20T22:12:41;1.00;;;0.90;;
77148;SDS011;66122;47.130;16.844;2023-08-20T22:22:44;1.08;;;0.98;;
77148;SDS011;66122;47.130;16.844;2023-08-20T22:32:53;0.90;;;0.80;;
77148;SDS011;66122;47.130;16.844;2023-08-20T22:43:01;0.83;;;0.77;;
77148;SDS011;66122;47.130;16.844;2023-08-20T22:53:10;1.67;;;1.57;;
77148;SDS011;66122;47.130;16.844;2023-08-20T23:03:13;0.85;;;0.77;;
77148;SDS011;66122;47.130;16.844;2023-08-20T23:13:16;0.70;;;0.50;;
77148;SDS011;66122;47.130;16.844;2023-08-20T23:23:22;0.87;;;0.80;;
77148;SDS011;66122;47.130;16.844;2023-08-20T23:33:25;0.77;;;0.68;;
77148;SDS011;66122;47.130;16.844;2023-08-20T23:43:28;1.10;;;1.00;;
77148;SDS011;66122;47.130;16.844;2023-08-20T23:53:31;0.70;;;0.60;;
